Aérodrome :
LOGIN :

S'inscrire | Disclaimer

   EN    FR    IT 

 










Légende :    VFR   VFR Marginal   IFR   IFR Intensif   IFR Très Intensif
Visi : 
Plafond : 
>= 8 km
>= 3000ft
5 à 8 km
1000 à 3000 ft
1500m à 5 km
500 à 1000 ft
800 à 1500m
200 à 500 ft
< 800m
< 200 ft
Symboles :   Orages  Brouillard  Fortes neiges  Fortes précipitations  Vent > 20 kt
SIGMETs :   Divers  Orages  Givrage  Turbulence  Onde Orograph.  Cendres Volcan.







- Altitude de l'aérodrome : 36 ft
- Code IATA : GJL


DAAV - Jijel Ferhat Abbas

DERNIER METAR :
  • 221600Z 00000KT 9999 SCT016 FEW026CB BKN030 17/14 Q1000

METARs EXPIRÉS :
  • 221500Z 31004KT 9999 SCT016 FEW026CB BKN030 18/14 Q0999
  • 221450Z 31004KT 9999 SCT016 FEW026CB BKN030 18/14 Q0999
  • 221400Z 13004KT 9999 SCT016 BKN030 18/14 Q0998

TAF TAF DAAV
Valide du 22 à 12h jusqu'au 23 à 12h UTC


221100Z 2212/2312 32008KT 6000 -RA SCT016 BKN030
TEMPO 2212/2220 4000 -SHRA FEW020CB
BECMG 2214/2216 24012KT
BECMG 2300/2303 17006KT
Pas de NOTAMs connus pour ce terrain.
1 SIGMET publié pour la FIR Alger (DAAA) :
 
Tempête de sable
DAAA SIGMET 2 VALID 221430/221730 DAMM
DAAA ALGER FIR HYV SS FCST WI N2826 E00953 - N2600 E00932 - N2508 E00808 - N2534 E00651 - N2826 E00953 MOV NE INTSF=



MET'MAP, la Météo Aéronautique d'un coup d'oeil ! - Copyright ORBIFLY Décembre 2007 - Disclaimer

ORBIFLY MET'MAP TEAM :

Programmation & Développement : Alexandra Zaïnal
Conception & Développement : Baudouin d'Aumeries
Co-Programmation & Développement : Marc-Olivier Méhu
Soutien technique & logistique : Manuel Goepfert

Contact : metmap@orbifly.com




SOURCES & CREDITS :

   NOAA